Time;durP1;ratioP1;P1;durP2;ratioP2;P2;SDS_P1;SDS_P2;PMS_P1;PMS_P2;Temp;Humidity;BMP_temperature;BMP_pressure;BME280_temperature;BME280_humidity;BME280_pressure;Samples;Min_cycle;Max_cycle;Signal;HPM_P1;HPM_P2
2022/03/02 00:01:42;;;;;;;43.28;27.45;;;;;;;;;;5035364;28;20037;-80
2022/03/02 00:04:08;;;;;;;37.85;25.20;;;;;;;;;;5035063;28;20053;-79
2022/03/02 00:06:34;;;;;;;39.25;26.45;;;;;;;;;;5022806;28;20041;-80
2022/03/02 00:09:01;;;;;;;42.22;27.45;;;;;;;;;;5035660;28;20045;-80
2022/03/02 00:11:30;;;;;;;40.20;27.70;;;;;;;;;;5044956;28;20509;-80
2022/03/02 00:13:58;;;;;;;40.45;27.67;;;;;;;;;;5029526;28;20346;-80
2022/03/02 00:16:24;;;;;;;44.83;29.70;;;;;;;;;;5041830;28;20136;-80
2022/03/02 00:18:51;;;;;;;42.88;27.83;;;;;;;;;;5026422;28;20052;-80
2022/03/02 00:21:18;;;;;;;38.05;24.98;;;;;;;;;;5030562;28;20045;-80
2022/03/02 00:23:44;;;;;;;44.65;28.88;;;;;;;;;;5040680;28;20389;-80
2022/03/02 00:26:10;;;;;;;41.65;27.65;;;;;;;;;;5047879;28;20049;-80
2022/03/02 00:28:37;;;;;;;44.05;25.73;;;;;;;;;;5043310;28;20041;-80
2022/03/02 00:31:04;;;;;;;42.30;29.60;;;;;;;;;;5039879;28;20044;-80
2022/03/02 00:33:30;;;;;;;37.75;26.02;;;;;;;;;;5025589;28;20062;-79
2022/03/02 00:35:56;;;;;;;41.30;27.52;;;;;;;;;;5041885;28;20404;-80
2022/03/02 00:38:22;;;;;;;40.10;26.35;;;;;;;;;;5043225;28;20059;-80
2022/03/02 00:40:48;;;;;;;42.55;28.77;;;;;;;;;;5039762;28;20407;-80
2022/03/02 00:43:15;;;;;;;40.03;26.52;;;;;;;;;;5021548;28;20056;-80
2022/03/02 00:45:41;;;;;;;42.80;26.70;;;;;;;;;;5008470;28;20113;-79
2022/03/02 00:48:08;;;;;;;37.97;26.23;;;;;;;;;;5026539;28;20055;-80
2022/03/02 00:50:34;;;;;;;45.55;28.45;;;;;;;;;;5046467;28;20482;-80
2022/03/02 00:53:02;;;;;;;42.70;26.48;;;;;;;;;;5041433;28;20041;-80
2022/03/02 00:55:28;;;;;;;42.33;29.50;;;;;;;;;;5036223;28;20033;-80
2022/03/02 00:57:55;;;;;;;41.65;28.58;;;;;;;;;;5024387;28;20056;-80
2022/03/02 01:00:21;;;;;;;44.22;28.10;;;;;;;;;;5043696;28;20052;-79
2022/03/02 01:02:47;;;;;;;41.83;27.80;;;;;;;;;;5042003;28;20549;-80
2022/03/02 01:05:13;;;;;;;40.60;27.27;;;;;;;;;;5037698;28;20041;-78
2022/03/02 01:07:39;;;;;;;45.53;28.35;;;;;;;;;;5043534;28;20530;-80
2022/03/02 01:10:06;;;;;;;49.58;29.85;;;;;;;;;;5007945;28;20041;-80
2022/03/02 01:12:33;;;;;;;46.47;26.50;;;;;;;;;;5028060;28;20415;-80
2022/03/02 01:14:59;;;;;;;42.03;27.67;;;;;;;;;;5021068;28;20443;-80
2022/03/02 01:17:25;;;;;;;41.35;26.23;;;;;;;;;;5042628;28;20079;-80
2022/03/02 01:19:52;;;;;;;42.10;28.20;;;;;;;;;;5044471;28;20041;-79
2022/03/02 01:22:18;;;;;;;45.22;29.30;;;;;;;;;;5039409;28;20044;-80
2022/03/02 01:24:46;;;;;;;36.83;25.15;;;;;;;;;;5041295;28;20045;-80
2022/03/02 01:27:13;;;;;;;48.63;28.08;;;;;;;;;;5021192;28;20088;-80
2022/03/02 01:29:39;;;;;;;41.97;28.90;;;;;;;;;;5040619;28;20053;-80
2022/03/02 01:32:07;;;;;;;42.10;27.05;;;;;;;;;;5038427;28;20040;-79
2022/03/02 01:34:33;;;;;;;43.13;27.20;;;;;;;;;;5041073;28;20045;-80
2022/03/02 01:36:59;;;;;;;43.72;26.50;;;;;;;;;;5034153;28;20063;-80
2022/03/02 01:39:25;;;;;;;45.58;28.42;;;;;;;;;;5040071;28;20036;-80
2022/03/02 01:41:52;;;;;;;40.38;27.48;;;;;;;;;;5033806;28;20040;-80
2022/03/02 01:44:18;;;;;;;46.55;25.88;;;;;;;;;;5030620;28;20049;-80
2022/03/02 01:46:44;;;;;;;44.85;27.88;;;;;;;;;;5050289;28;20115;-80
2022/03/02 01:49:11;;;;;;;38.30;25.58;;;;;;;;;;5011176;28;20040;-80
2022/03/02 01:51:37;;;;;;;41.28;25.33;;;;;;;;;;5020577;28;20092;-80
2022/03/02 01:54:04;;;;;;;46.13;29.92;;;;;;;;;;5019571;28;20099;-80
2022/03/02 01:56:30;;;;;;;47.83;30.10;;;;;;;;;;5043447;28;20115;-80
2022/03/02 01:58:57;;;;;;;46.05;30.42;;;;;;;;;;5043981;28;20067;-80
2022/03/02 02:01:23;;;;;;;45.95;31.98;;;;;;;;;;5028671;28;20040;-80
2022/03/02 02:03:49;;;;;;;41.05;27.17;;;;;;;;;;5029472;28;20051;-80
2022/03/02 02:06:15;;;;;;;37.97;25.88;;;;;;;;;;5049125;28;20083;-80
2022/03/02 02:08:42;;;;;;;39.63;26.15;;;;;;;;;;5026730;28;20037;-80
2022/03/02 02:11:10;;;;;;;41.38;27.10;;;;;;;;;;5044696;28;20044;-80
2022/03/02 02:13:36;;;;;;;43.85;27.00;;;;;;;;;;5042084;28;20045;-80
2022/03/02 02:16:04;;;;;;;38.10;25.27;;;;;;;;;;5010857;28;20376;-80
2022/03/02 02:18:30;;;;;;;42.00;27.15;;;;;;;;;;5032777;28;20276;-80
2022/03/02 02:21:00;;;;;;;38.88;27.08;;;;;;;;;;5040411;28;20032;-80
2022/03/02 02:23:26;;;;;;;40.85;26.05;;;;;;;;;;5030804;28;20063;-80
2022/03/02 02:25:52;;;;;;;39.63;26.02;;;;;;;;;;5040355;28;20091;-80
2022/03/02 02:28:22;;;;;;;41.05;25.38;;;;;;;;;;5022369;28;20048;-80
2022/03/02 02:30:49;;;;;;;37.72;25.38;;;;;;;;;;5036501;28;20060;-80
2022/03/02 02:33:16;;;;;;;43.78;27.02;;;;;;;;;;5043952;28;20497;-80
2022/03/02 02:35:44;;;;;;;48.05;27.30;;;;;;;;;;5045149;28;20045;-80
2022/03/02 02:38:10;;;;;;;47.25;28.92;;;;;;;;;;5028535;28;20423;-80
2022/03/02 02:40:36;;;;;;;45.30;26.55;;;;;;;;;;5042193;28;20046;-80
2022/03/02 02:43:03;;;;;;;43.60;26.90;;;;;;;;;;5040308;28;20323;-80
2022/03/02 02:45:29;;;;;;;43.20;27.13;;;;;;;;;;5035381;28;20048;-80
2022/03/02 02:47:55;;;;;;;41.95;27.30;;;;;;;;;;5046691;28;20150;-79
2022/03/02 02:50:24;;;;;;;45.30;30.35;;;;;;;;;;5043701;28;20059;-79
2022/03/02 02:52:51;;;;;;;44.22;27.63;;;;;;;;;;5041367;28;20047;-79
2022/03/02 02:55:17;;;;;;;46.28;30.10;;;;;;;;;;5029095;28;20056;-79
2022/03/02 02:57:44;;;;;;;51.55;30.35;;;;;;;;;;5026862;28;20041;-79
2022/03/02 03:00:12;;;;;;;48.03;30.13;;;;;;;;;;5037443;28;20037;-79
2022/03/02 03:02:39;;;;;;;46.38;29.80;;;;;;;;;;5044391;28;20049;-79
2022/03/02 03:05:09;;;;;;;45.97;29.15;;;;;;;;;;5044428;28;20488;-79
2022/03/02 03:07:39;;;;;;;50.75;29.42;;;;;;;;;;5047375;28;20053;-79
2022/03/02 03:10:06;;;;;;;50.85;29.30;;;;;;;;;;5042531;28;20133;-79
2022/03/02 03:12:33;;;;;;;48.47;31.23;;;;;;;;;;5020674;28;20034;-79
2022/03/02 03:15:00;;;;;;;50.90;30.88;;;;;;;;;;5034536;28;20057;-80
2022/03/02 03:17:26;;;;;;;49.67;31.58;;;;;;;;;;5039338;28;20453;-79
2022/03/02 03:19:52;;;;;;;52.22;31.15;;;;;;;;;;5036789;28;20171;-80
2022/03/02 03:22:18;;;;;;;46.78;29.45;;;;;;;;;;5029513;28;20510;-80
2022/03/02 03:24:44;;;;;;;48.80;29.60;;;;;;;;;;5025289;28;20128;-79
2022/03/02 03:27:11;;;;;;;49.15;30.73;;;;;;;;;;5024665;28;20095;-80
2022/03/02 03:29:37;;;;;;;50.20;31.45;;;;;;;;;;5037611;28;20049;-79
2022/03/02 03:32:04;;;;;;;50.90;29.48;;;;;;;;;;5045237;28;20094;-79
2022/03/02 03:34:30;;;;;;;49.47;30.30;;;;;;;;;;5040395;28;20037;-79
2022/03/02 03:36:56;;;;;;;50.42;32.50;;;;;;;;;;5047023;28;20495;-79
2022/03/02 03:39:23;;;;;;;55.50;34.63;;;;;;;;;;5044205;28;20043;-79
2022/03/02 03:41:49;;;;;;;58.58;34.08;;;;;;;;;;5047725;28;20442;-79
2022/03/02 03:44:15;;;;;;;59.80;33.83;;;;;;;;;;5043839;28;20048;-80
2022/03/02 03:46:41;;;;;;;58.80;34.45;;;;;;;;;;5047585;28;20051;-79
2022/03/02 03:49:07;;;;;;;58.95;33.58;;;;;;;;;;5029588;28;20040;-80
2022/03/02 03:51:34;;;;;;;53.75;31.33;;;;;;;;;;5035639;28;20041;-80
2022/03/02 03:54:00;;;;;;;52.17;32.05;;;;;;;;;;5040443;28;20049;-79
2022/03/02 03:56:28;;;;;;;55.17;32.22;;;;;;;;;;5046015;28;20041;-80
2022/03/02 03:58:54;;;;;;;55.13;32.65;;;;;;;;;;5048257;28;20052;-79
2022/03/02 04:01:21;;;;;;;58.30;34.45;;;;;;;;;;5023334;28;20037;-79
2022/03/02 04:03:47;;;;;;;56.05;32.85;;;;;;;;;;5043231;28;20042;-79
2022/03/02 04:06:13;;;;;;;54.20;32.88;;;;;;;;;;5045351;28;20044;-79
2022/03/02 04:08:40;;;;;;;56.00;33.03;;;;;;;;;;5048210;28;20060;-80
2022/03/02 04:11:06;;;;;;;49.83;32.97;;;;;;;;;;5058141;28;20512;-80
2022/03/02 04:13:32;;;;;;;55.95;31.58;;;;;;;;;;5047038;28;20039;-79
2022/03/02 04:16:00;;;;;;;52.35;31.15;;;;;;;;;;5044204;28;20045;-79
2022/03/02 04:18:27;;;;;;;51.63;30.67;;;;;;;;;;5032426;28;20041;-79
2022/03/02 04:20:56;;;;;;;49.67;31.58;;;;;;;;;;5047071;28;20094;-79
2022/03/02 04:23:22;;;;;;;46.20;28.77;;;;;;;;;;5052030;28;20041;-79
2022/03/02 04:25:48;;;;;;;53.67;31.00;;;;;;;;;;5049555;28;20045;-79
2022/03/02 04:28:15;;;;;;;47.65;29.98;;;;;;;;;;5045660;28;20526;-79
2022/03/02 04:30:41;;;;;;;48.90;31.48;;;;;;;;;;5054327;28;20048;-79
2022/03/02 04:33:07;;;;;;;48.42;29.83;;;;;;;;;;5051438;28;20032;-80
2022/03/02 04:35:35;;;;;;;57.78;31.25;;;;;;;;;;5049558;28;20037;-79
2022/03/02 04:38:01;;;;;;;49.97;30.95;;;;;;;;;;5034566;28;20490;-79
2022/03/02 04:40:28;;;;;;;52.47;32.28;;;;;;;;;;5030225;28;20124;-79
2022/03/02 04:42:54;;;;;;;52.08;33.35;;;;;;;;;;5046775;28;20085;-79
2022/03/02 04:45:25;;;;;;;51.35;32.08;;;;;;;;;;5049719;28;20076;-79
2022/03/02 04:47:52;;;;;;;59.90;34.13;;;;;;;;;;5048790;28;20430;-79
2022/03/02 04:50:19;;;;;;;51.50;31.10;;;;;;;;;;5045834;28;20521;-79
2022/03/02 04:52:46;;;;;;;53.00;32.65;;;;;;;;;;5052239;28;20464;-79
2022/03/02 04:55:12;;;;;;;53.95;32.45;;;;;;;;;;5025426;28;20076;-79
2022/03/02 04:57:39;;;;;;;59.17;34.13;;;;;;;;;;5026813;28;20113;-79
2022/03/02 05:00:07;;;;;;;54.47;32.30;;;;;;;;;;5053978;28;20037;-79
2022/03/02 05:02:33;;;;;;;53.65;31.52;;;;;;;;;;5046367;28;20437;-79
2022/03/02 05:04:59;;;;;;;43.83;29.35;;;;;;;;;;5050134;28;20048;-79
2022/03/02 05:07:25;;;;;;;57.90;32.83;;;;;;;;;;5046445;28;20049;-78
2022/03/02 05:09:51;;;;;;;48.67;31.63;;;;;;;;;;5038206;28;20052;-78
2022/03/02 05:12:18;;;;;;;57.15;31.60;;;;;;;;;;5046355;28;20045;-79
2022/03/02 05:14:46;;;;;;;55.28;33.47;;;;;;;;;;5008924;28;20414;-79
2022/03/02 05:17:12;;;;;;;49.50;32.53;;;;;;;;;;5044924;28;20124;-79
2022/03/02 05:19:39;;;;;;;49.83;32.17;;;;;;;;;;5014737;28;20501;-79
2022/03/02 05:22:06;;;;;;;48.83;30.13;;;;;;;;;;5043248;28;20044;-78
2022/03/02 05:24:32;;;;;;;52.08;32.28;;;;;;;;;;5045401;28;20041;-78
2022/03/02 05:26:58;;;;;;;48.95;33.05;;;;;;;;;;5055929;28;20040;-78
2022/03/02 05:29:24;;;;;;;53.85;31.67;;;;;;;;;;5045977;28;20045;-78
2022/03/02 05:31:51;;;;;;;55.88;33.83;;;;;;;;;;5046940;28;20211;-78
2022/03/02 05:34:17;;;;;;;52.13;31.48;;;;;;;;;;5033550;28;20140;-78
2022/03/02 05:36:43;;;;;;;59.60;32.40;;;;;;;;;;5046646;28;20094;-79
2022/03/02 05:39:09;;;;;;;53.42;32.47;;;;;;;;;;5047941;28;20474;-79
2022/03/02 05:41:35;;;;;;;46.92;30.92;;;;;;;;;;5032482;28;20078;-79
2022/03/02 05:44:02;;;;;;;47.00;30.20;;;;;;;;;;5047000;28;20079;-79
2022/03/02 05:46:28;;;;;;;52.85;31.58;;;;;;;;;;5027991;28;20159;-79
2022/03/02 05:48:54;;;;;;;45.75;30.48;;;;;;;;;;5042247;28;20215;-79
2022/03/02 05:51:21;;;;;;;64.07;33.25;;;;;;;;;;5037951;28;20056;-79
2022/03/02 05:53:47;;;;;;;49.95;31.10;;;;;;;;;;5043923;28;20370;-79
2022/03/02 05:56:13;;;;;;;47.53;31.17;;;;;;;;;;5027645;28;20041;-79
2022/03/02 05:58:39;;;;;;;46.90;29.98;;;;;;;;;;5037056;28;20049;-79
2022/03/02 06:01:05;;;;;;;49.15;30.75;;;;;;;;;;5031810;28;20049;-78
2022/03/02 06:03:32;;;;;;;51.40;31.15;;;;;;;;;;5044421;28;20306;-79
2022/03/02 06:05:58;;;;;;;61.42;33.92;;;;;;;;;;5041093;28;20041;-79
2022/03/02 06:08:24;;;;;;;50.53;32.58;;;;;;;;;;5031371;28;20079;-79
2022/03/02 06:10:51;;;;;;;47.80;31.13;;;;;;;;;;5043116;28;20041;-79
2022/03/02 06:13:17;;;;;;;49.25;30.73;;;;;;;;;;5029440;28;20115;-79
2022/03/02 06:15:44;;;;;;;51.78;30.90;;;;;;;;;;5029771;28;20390;-79
2022/03/02 06:18:10;;;;;;;46.08;29.85;;;;;;;;;;5045291;28;20048;-79
2022/03/02 06:20:37;;;;;;;52.83;31.52;;;;;;;;;;5043629;28;20121;-79
2022/03/02 06:23:04;;;;;;;47.47;30.05;;;;;;;;;;5044031;28;20037;-79
2022/03/02 06:25:31;;;;;;;43.03;29.35;;;;;;;;;;5043200;28;20041;-79
2022/03/02 06:27:57;;;;;;;47.15;31.15;;;;;;;;;;5039371;28;20116;-78
2022/03/02 06:30:23;;;;;;;45.70;30.77;;;;;;;;;;5045750;28;20045;-79
2022/03/02 06:32:49;;;;;;;53.33;30.85;;;;;;;;;;5026762;28;20083;-79
2022/03/02 06:35:16;;;;;;;51.90;30.98;;;;;;;;;;5042088;28;20256;-78
2022/03/02 06:37:42;;;;;;;48.17;29.25;;;;;;;;;;5037418;28;20102;-79
2022/03/02 06:40:09;;;;;;;52.10;31.10;;;;;;;;;;5024992;28;20507;-78
2022/03/02 06:42:45;;;;;;;45.80;28.55;;;;;;;;;;5027245;28;20040;-79
2022/03/02 06:45:16;;;;;;;48.03;30.33;;;;;;;;;;5042879;28;20126;-79
2022/03/02 06:47:46;;;;;;;50.42;31.42;;;;;;;;;;5025182;28;20495;-77
2022/03/02 06:50:14;;;;;;;54.15;31.90;;;;;;;;;;5038419;28;20060;-78
2022/03/02 06:52:41;;;;;;;48.55;30.63;;;;;;;;;;5045324;28;20049;-79
2022/03/02 06:55:09;;;;;;;47.95;30.75;;;;;;;;;;5028047;28;20652;-78
2022/03/02 06:57:36;;;;;;;51.28;32.00;;;;;;;;;;5046448;28;20570;-79
2022/03/02 07:00:07;;;;;;;52.35;33.17;;;;;;;;;;5008265;28;20076;-79
2022/03/02 07:02:33;;;;;;;52.72;31.90;;;;;;;;;;5025857;28;20436;-79
2022/03/02 07:05:00;;;;;;;50.03;30.70;;;;;;;;;;5050797;28;20479;-79
2022/03/02 07:07:26;;;;;;;43.15;29.90;;;;;;;;;;5043167;28;20506;-80
2022/03/02 07:09:54;;;;;;;49.53;30.98;;;;;;;;;;5040230;28;20040;-80
2022/03/02 07:12:20;;;;;;;55.45;30.40;;;;;;;;;;5046706;28;20044;-79
2022/03/02 07:14:47;;;;;;;46.72;29.00;;;;;;;;;;5044131;28;20117;-80
2022/03/02 07:17:13;;;;;;;47.17;30.27;;;;;;;;;;5033683;28;20049;-79
2022/03/02 07:19:39;;;;;;;60.78;30.88;;;;;;;;;;5045184;28;20040;-80
2022/03/02 07:22:06;;;;;;;51.70;29.50;;;;;;;;;;5039907;28;20037;-79
2022/03/02 07:24:36;;;;;;;48.05;30.88;;;;;;;;;;5038290;28;20048;-79
2022/03/02 07:27:02;;;;;;;51.35;30.60;;;;;;;;;;5046719;28;20080;-80
2022/03/02 07:29:29;;;;;;;47.60;28.23;;;;;;;;;;5042565;28;20384;-80
2022/03/02 07:31:57;;;;;;;47.97;29.73;;;;;;;;;;5032911;28;20041;-80
2022/03/02 07:34:25;;;;;;;45.20;30.35;;;;;;;;;;5011679;28;20039;-80
2022/03/02 07:36:52;;;;;;;54.95;30.58;;;;;;;;;;5017883;28;20599;-80
2022/03/02 07:39:18;;;;;;;52.88;31.75;;;;;;;;;;5040576;28;20072;-80
2022/03/02 07:41:44;;;;;;;45.88;30.40;;;;;;;;;;5023185;28;20037;-79
2022/03/02 07:44:11;;;;;;;47.00;29.08;;;;;;;;;;5039905;28;20037;-80
2022/03/02 07:46:40;;;;;;;56.67;33.55;;;;;;;;;;5045236;28;20048;-80
2022/03/02 07:49:06;;;;;;;48.47;30.75;;;;;;;;;;5038353;28;20041;-79
2022/03/02 07:51:36;;;;;;;53.85;31.95;;;;;;;;;;5021932;28;20339;-80
2022/03/02 07:54:04;;;;;;;42.15;27.65;;;;;;;;;;5029095;28;20402;-80
2022/03/02 07:56:31;;;;;;;46.83;27.75;;;;;;;;;;5041118;28;20636;-80
2022/03/02 07:59:05;;;;;;;42.72;30.13;;;;;;;;;;5027491;28;20106;-79
2022/03/02 08:01:36;;;;;;;48.45;30.70;;;;;;;;;;5048977;28;20029;-80
2022/03/02 08:04:06;;;;;;;50.45;28.48;;;;;;;;;;5041875;28;20041;-80
2022/03/02 08:06:37;;;;;;;52.17;30.55;;;;;;;;;;5028379;28;20545;-80
2022/03/02 08:09:07;;;;;;;55.80;30.92;;;;;;;;;;5034563;28;20045;-80
2022/03/02 08:11:35;;;;;;;38.63;27.95;;;;;;;;;;5024355;28;20048;-80
2022/03/02 08:14:03;;;;;;;43.92;28.42;;;;;;;;;;5035361;28;20040;-80
2022/03/02 08:16:30;;;;;;;50.92;29.45;;;;;;;;;;5047525;28;20451;-80
2022/03/02 08:18:57;;;;;;;52.08;31.77;;;;;;;;;;5026255;28;20043;-81
2022/03/02 08:21:26;;;;;;;51.63;30.20;;;;;;;;;;5021700;28;20033;-80
2022/03/02 08:23:55;;;;;;;46.05;29.02;;;;;;;;;;5041010;28;20048;-80
2022/03/02 08:26:23;;;;;;;48.85;29.00;;;;;;;;;;5022328;28;20687;-80
2022/03/02 08:28:52;;;;;;;49.03;29.60;;;;;;;;;;5017827;28;20045;-80
2022/03/02 08:31:19;;;;;;;50.10;30.52;;;;;;;;;;5049431;28;20037;-80
2022/03/02 08:33:46;;;;;;;45.75;30.70;;;;;;;;;;5045864;28;20041;-81
2022/03/02 08:36:13;;;;;;;49.72;29.40;;;;;;;;;;5036480;28;20163;-80
2022/03/02 08:38:44;;;;;;;47.58;29.83;;;;;;;;;;5031774;28;20045;-80
2022/03/02 08:41:10;;;;;;;45.67;29.75;;;;;;;;;;5031669;28;20037;-80
2022/03/02 08:43:37;;;;;;;45.55;28.33;;;;;;;;;;5022335;28;20056;-80
2022/03/02 08:46:04;;;;;;;45.72;28.85;;;;;;;;;;5031483;28;20055;-80
2022/03/02 08:48:30;;;;;;;51.92;32.15;;;;;;;;;;5041422;28;20045;-80
2022/03/02 08:50:57;;;;;;;48.35;30.25;;;;;;;;;;5022640;28;20705;-81
2022/03/02 08:53:25;;;;;;;47.50;30.20;;;;;;;;;;5010517;28;20284;-81
2022/03/02 08:55:52;;;;;;;44.75;29.58;;;;;;;;;;5028142;28;20106;-80
2022/03/02 08:58:18;;;;;;;51.88;32.03;;;;;;;;;;5032761;28;20056;-80
2022/03/02 09:00:45;;;;;;;46.10;28.60;;;;;;;;;;5044736;28;20139;-81
2022/03/02 09:03:16;;;;;;;49.92;29.70;;;;;;;;;;5040566;28;20122;-81
2022/03/02 09:05:43;;;;;;;46.42;28.05;;;;;;;;;;5043916;28;20499;-81
2022/03/02 09:08:09;;;;;;;45.28;29.30;;;;;;;;;;5039989;28;20112;-80
2022/03/02 09:10:36;;;;;;;43.95;28.83;;;;;;;;;;5033763;28;20120;-80
2022/03/02 09:13:02;;;;;;;46.45;28.65;;;;;;;;;;5036564;28;20825;-81
2022/03/02 09:15:29;;;;;;;47.42;28.95;;;;;;;;;;5045913;28;20438;-81
2022/03/02 09:17:56;;;;;;;45.10;28.13;;;;;;;;;;5056107;28;20103;-81
2022/03/02 09:20:26;;;;;;;52.78;29.83;;;;;;;;;;5037936;28;20082;-81
2022/03/02 09:22:54;;;;;;;47.45;27.90;;;;;;;;;;5044369;28;20110;-81
2022/03/02 09:25:21;;;;;;;44.10;28.98;;;;;;;;;;5045942;28;20041;-82
2022/03/02 09:27:47;;;;;;;45.58;28.73;;;;;;;;;;5051649;28;20063;-82
2022/03/02 09:30:13;;;;;;;51.58;29.65;;;;;;;;;;5050435;28;20041;-81
2022/03/02 09:32:41;;;;;;;43.03;26.67;;;;;;;;;;5049883;28;20041;-81
2022/03/02 09:35:11;;;;;;;43.08;28.38;;;;;;;;;;5008202;28;20547;-82
2022/03/02 09:37:38;;;;;;;51.28;29.23;;;;;;;;;;5047406;28;20033;-82
2022/03/02 09:40:04;;;;;;;43.88;27.08;;;;;;;;;;5029531;28;20041;-82
2022/03/02 09:42:32;;;;;;;48.03;29.30;;;;;;;;;;5043003;28;20470;-82
2022/03/02 09:45:04;;;;;;;46.63;28.63;;;;;;;;;;5037211;28;20045;-82
2022/03/02 09:47:42;;;;;;;45.33;29.17;;;;;;;;;;5034976;28;20053;-82
2022/03/02 09:50:09;;;;;;;41.63;26.95;;;;;;;;;;5044779;28;20066;-82
2022/03/02 09:52:38;;;;;;;46.13;28.85;;;;;;;;;;5040042;28;20041;-83
2022/03/02 09:55:09;;;;;;;42.50;27.63;;;;;;;;;;5046891;28;20045;-82
2022/03/02 09:57:41;;;;;;;43.20;27.23;;;;;;;;;;5047031;28;20049;-82
2022/03/02 10:00:09;;;;;;;45.70;28.48;;;;;;;;;;5043056;28;20060;-82
2022/03/02 10:02:36;;;;;;;40.60;26.38;;;;;;;;;;5022286;28;20099;-82
2022/03/02 10:05:05;;;;;;;47.28;29.65;;;;;;;;;;5047557;28;20048;-82
2022/03/02 10:07:34;;;;;;;38.28;25.05;;;;;;;;;;5035647;28;20046;-82
2022/03/02 10:10:14;;;;;;;41.05;26.02;;;;;;;;;;5044381;28;20060;-83
2022/03/02 10:12:41;;;;;;;41.15;27.65;;;;;;;;;;5046466;28;20102;-83
2022/03/02 10:15:09;;;;;;;42.22;25.85;;;;;;;;;;5042505;28;20466;-81
2022/03/02 10:17:37;;;;;;;42.40;27.80;;;;;;;;;;5044037;28;20043;-81
2022/03/02 10:20:07;;;;;;;42.58;26.60;;;;;;;;;;5043723;28;20045;-81
2022/03/02 10:22:37;;;;;;;41.05;25.95;;;;;;;;;;5037533;28;20209;-81
2022/03/02 10:25:04;;;;;;;44.25;27.13;;;;;;;;;;5045017;28;20037;-81
2022/03/02 10:27:31;;;;;;;42.83;26.55;;;;;;;;;;5055897;28;20049;-82
2022/03/02 10:30:06;;;;;;;39.90;25.75;;;;;;;;;;5043212;28;20045;-82
2022/03/02 10:32:35;;;;;;;38.92;25.38;;;;;;;;;;5039664;28;20049;-82
2022/03/02 10:35:09;;;;;;;44.70;25.88;;;;;;;;;;5038468;28;20037;-82
2022/03/02 10:37:36;;;;;;;38.45;25.88;;;;;;;;;;5042073;28;20044;-82
2022/03/02 10:40:07;;;;;;;37.92;24.85;;;;;;;;;;5028570;28;20697;-82
2022/03/02 10:42:42;;;;;;;41.30;25.08;;;6.40;99.90;;;;;;5003754;28;20037;-81
2022/03/02 10:45:16;;;;;;;42.42;26.45;;;7.00;99.90;;;;;;5040344;28;20099;-81
2022/03/02 10:48:12;;;;;;;36.17;24.35;;;7.10;99.90;;;;;;5040017;28;20250;-82
2022/03/02 10:50:41;;;;;;;40.08;27.30;;;7.20;99.90;;;;;;5040555;28;20052;-81
2022/03/02 10:53:13;;;;;;;39.80;25.63;;;7.20;99.90;;;;;;5034539;28;20044;-80
2022/03/02 10:55:45;;;;;;;39.50;27.25;;;7.30;99.90;;;;;;5042312;28;20285;-81
2022/03/02 10:58:14;;;;;;;35.15;24.42;;;7.30;99.90;;;;;;5034188;28;20041;-81
2022/03/02 11:00:40;;;;;;;44.28;25.50;;;7.40;99.90;;;;;;5042536;28;20033;-81
2022/03/02 11:03:07;;;;;;;36.05;25.02;;;7.50;99.90;;;;;;5041402;28;20044;-81
2022/03/02 11:05:34;;;;;;;34.85;24.08;;;7.50;99.90;;;;;;5021518;28;20041;-81
2022/03/02 11:08:01;;;;;;;36.58;26.13;;;7.60;99.90;;;;;;5017669;28;20163;-81
2022/03/02 11:10:37;;;;;;;45.13;26.85;;;7.70;99.90;;;;;;5019903;28;20084;-83
2022/03/02 11:13:15;;;;;;;35.22;24.73;;;;;;;;;;5013631;28;20041;-82
2022/03/02 11:15:45;;;;;;;39.08;26.00;;;;;;;;;;5006223;28;20089;-82
2022/03/02 11:18:16;;;;;;;37.92;25.60;;;;;;;;;;5037373;28;20171;-82
2022/03/02 11:20:51;;;;;;;35.03;24.13;;;;;;;;;;5039538;28;20045;-83
2022/03/02 11:23:23;;;;;;;36.55;23.27;;;7.80;99.90;;;;;;5037057;28;20077;-83
2022/03/02 11:25:54;;;;;;;39.10;26.20;;;8.00;99.90;;;;;;5022513;28;20037;-83
2022/03/02 11:28:22;;;;;;;33.33;23.65;;;;;;;;;;5037541;28;20537;-81
2022/03/02 11:30:56;;;;;;;37.17;23.55;;;;;;;;;;5024881;28;20044;-81
2022/03/02 11:33:23;;;;;;;36.47;23.40;;;;;;;;;;5037719;28;20045;-82
2022/03/02 11:35:51;;;;;;;42.10;24.65;;;;;;;;;;5036045;28;20128;-82
2022/03/02 11:38:21;;;;;;;34.17;24.02;;;;;;;;;;5046048;28;20489;-82
2022/03/02 11:40:49;;;;;;;32.60;23.25;;;;;;;;;;5035553;28;20029;-83
2022/03/02 11:43:16;;;;;;;33.88;25.02;;;;;;;;;;5019324;28;20514;-83
2022/03/02 11:45:43;;;;;;;33.25;22.80;;;;;;;;;;5040929;28;20099;-83
2022/03/02 11:48:15;;;;;;;33.47;22.75;;;;;;;;;;5041951;28;20044;-83
2022/03/02 11:51:01;;;;;;;32.22;22.65;;;;;;;;;;5040394;28;20041;-83
2022/03/02 11:53:33;;;;;;;35.70;21.80;;;;;;;;;;5041983;28;20044;-83
2022/03/02 11:56:01;;;;;;;34.88;23.27;;;;;;;;;;5039479;28;20628;-82
2022/03/02 11:58:27;;;;;;;35.85;21.92;;;;;;;;;;5043757;28;20791;-82
2022/03/02 12:01:04;;;;;;;30.90;22.45;;;;;;;;;;5031773;28;20045;-82
2022/03/02 12:03:31;;;;;;;33.80;23.50;;;;;;;;;;5019314;28;20564;-83
2022/03/02 12:06:05;;;;;;;32.88;21.85;;;;;;;;;;5031457;28;20049;-82
2022/03/02 12:08:33;;;;;;;33.30;22.35;;;;;;;;;;5044428;28;20044;-83
2022/03/02 12:11:02;;;;;;;37.47;21.92;;;;;;;;;;5044625;28;20395;-82
2022/03/02 12:13:29;;;;;;;31.27;21.55;;;;;;;;;;5039545;28;20044;-83
2022/03/02 12:15:55;;;;;;;36.13;23.17;;;;;;;;;;5042053;28;20091;-83
2022/03/02 12:18:23;;;;;;;32.28;21.67;;;;;;;;;;5030261;28;20052;-83
2022/03/02 12:20:53;;;;;;;28.83;21.17;;;;;;;;;;5028815;28;20201;-84
2022/03/02 12:23:27;;;;;;;38.80;21.92;;;;;;;;;;5047200;28;20060;-84
2022/03/02 12:25:54;;;;;;;32.42;20.60;;;;;;;;;;5051519;28;20123;-83
2022/03/02 12:28:20;;;;;;;29.83;21.13;;;;;;;;;;5038788;28;20049;-84
2022/03/02 12:30:47;;;;;;;33.28;22.38;;;;;;;;;;5038212;28;20051;-83
2022/03/02 12:33:13;;;;;;;33.67;21.33;;;;;;;;;;5019417;28;20402;-83
2022/03/02 12:35:40;;;;;;;31.45;22.13;;;;;;;;;;5041962;28;20047;-84
2022/03/02 12:38:08;;;;;;;30.85;21.38;;;;;;;;;;5031121;28;20033;-84
2022/03/02 12:40:40;;;;;;;29.38;19.90;;;;;;;;;;5048691;28;20430;-84
2022/03/02 12:43:16;;;;;;;28.98;19.45;;;;;;;;;;5012493;28;20045;-84
2022/03/02 12:45:44;;;;;;;33.55;20.63;;;;;;;;;;5029648;28;20153;-83
2022/03/02 12:48:13;;;;;;;29.25;21.50;;;;;;;;;;5042218;28;20100;-83
2022/03/02 12:50:39;;;;;;;30.15;20.10;;;;;;;;;;5040734;28;20561;-83
2022/03/02 12:53:06;;;;;;;28.10;20.45;;;;;;;;;;5044148;28;20029;-83
2022/03/02 12:55:32;;;;;;;30.67;20.25;;;8.10;99.90;;;;;;5024813;28;20088;-83
2022/03/02 12:57:58;;;;;;;31.45;22.30;;;;;;;;;;5041785;28;20069;-83
2022/03/02 13:00:25;;;;;;;28.88;20.13;;;;;;;;;;5046498;28;20129;-82
2022/03/02 13:02:53;;;;;;;33.85;21.77;;;;;;;;;;5033097;28;20048;-82
2022/03/02 13:05:42;;;;;;;35.17;24.85;;;9.80;99.90;;;;;;5043591;28;20041;-82
2022/03/02 13:08:48;;;;;;;35.45;21.85;;;9.90;99.90;;;;;;5026823;28;20086;-82
2022/03/02 13:11:34;;;;;;;29.95;19.63;;;9.90;99.90;;;;;;5039662;28;20037;-81
2022/03/02 13:14:00;;;;;;;29.67;20.27;;;9.90;99.90;;;;;;5043390;28;20045;-82
2022/03/02 13:16:28;;;;;;;34.90;21.40;;;;;;;;;;5010858;28;20051;-82
2022/03/02 13:18:58;;;;;;;33.13;20.63;;;;;;;;;;5045152;28;20179;-81
2022/03/02 13:21:32;;;;;;;27.52;19.10;;;;;;;;;;5046625;28;20045;-82
2022/03/02 13:24:09;;;;;;;30.08;19.70;;;;;;;;;;5031494;28;20044;-82
2022/03/02 13:26:36;;;;;;;29.90;21.20;;;;;;;;;;5041304;28;20442;-83
2022/03/02 13:29:06;;;;;;;26.42;19.67;;;;;;;;;;5046627;28;20607;-82
2022/03/02 13:31:50;;;;;;;24.77;18.17;;;;;;;;;;5038856;28;20048;-82
2022/03/02 13:34:17;;;;;;;34.55;21.25;;;;;;;;;;5049682;28;20543;-83
2022/03/02 13:36:49;;;;;;;29.45;20.80;;;;;;;;;;5042745;28;20052;-83
2022/03/02 13:39:15;;;;;;;24.63;18.00;;;;;;;;;;5045539;28;20094;-83
2022/03/02 13:41:42;;;;;;;26.98;18.90;;;;;;;;;;5046293;28;20034;-83
2022/03/02 13:44:29;;;;;;;32.92;20.95;;;;;;;;;;5040306;28;20051;-83
2022/03/02 13:47:07;;;;;;;29.00;19.67;;;;;;;;;;5038414;28;20525;-84
2022/03/02 13:52:12;;;;;;;25.75;18.40;;;;;;;;;;5048444;28;20514;-85
2022/03/02 13:54:38;;;;;;;26.08;18.92;;;;;;;;;;5038256;28;20049;-84
2022/03/02 13:57:05;;;;;;;27.63;17.73;;;;;;;;;;5044651;28;20569;-84
2022/03/02 13:59:32;;;;;;;29.25;18.48;;;;;;;;;;5042442;28;20502;-84
2022/03/02 14:01:58;;;;;;;23.38;17.70;;;;;;;;;;5036705;28;20041;-84
2022/03/02 14:04:24;;;;;;;28.40;18.45;;;;;;;;;;5036511;28;20041;-84
2022/03/02 14:06:53;;;;;;;28.55;19.92;;;;;;;;;;5041999;28;20202;-83
2022/03/02 14:09:19;;;;;;;28.88;20.73;;;;;;;;;;5046474;28;20415;-83
2022/03/02 14:11:47;;;;;;;31.33;19.67;;;;;;;;;;5045004;28;20098;-82
2022/03/02 14:14:13;;;;;;;31.48;19.80;;;;;;;;;;5041953;28;20049;-82
2022/03/02 14:16:50;;;;;;;26.10;20.35;;;;;;;;;;5039771;28;20061;-83
2022/03/02 14:19:17;;;;;;;26.58;19.80;;;;;;;;;;5023738;28;20041;-83